Time;durP1;ratioP1;P1;durP2;ratioP2;P2;SDS_P1;SDS_P2;PMS_P1;PMS_P2;Temp;Humidity;BMP_temperature;BMP_pressure;BME280_temperature;BME280_humidity;BME280_pressure;Samples;Min_cycle;Max_cycle;Signal;HPM_P1;HPM_P2
2022/03/07 00:00:35;;;;;;;9.05;6.53;;;6.10;77.70;;;;;;5093138;28;20228;-64
2022/03/07 00:03:03;;;;;;;7.30;6.57;;;6.10;77.60;;;;;;5104203;27;20231;-64
2022/03/07 00:05:31;;;;;;;7.85;7.07;;;6.10;77.80;;;;;;5113358;27;20613;-64
2022/03/07 00:07:58;;;;;;;7.53;6.70;;;6.10;77.90;;;;;;5112308;27;20326;-63
2022/03/07 00:10:25;;;;;;;8.25;7.32;;;6.10;78.00;;;;;;5113091;27;20591;-62
2022/03/07 00:12:52;;;;;;;11.77;9.80;;;6.10;78.50;;;;;;5112688;27;20222;-63
2022/03/07 00:15:19;;;;;;;11.60;9.32;;;6.10;78.80;;;;;;5113360;27;20226;-64
2022/03/07 00:17:46;;;;;;;8.48;7.50;;;6.10;79.00;;;;;;5112640;27;20219;-64
2022/03/07 00:20:14;;;;;;;10.02;9.07;;;6.10;79.00;;;;;;5112810;27;20268;-63
2022/03/07 00:22:42;;;;;;;8.35;7.57;;;6.10;78.80;;;;;;5113033;27;20565;-64
2022/03/07 00:25:10;;;;;;;8.55;7.20;;;6.10;78.70;;;;;;5112607;27;20218;-63
2022/03/07 00:27:37;;;;;;;7.72;6.93;;;6.10;78.80;;;;;;5112941;27;20233;-63
2022/03/07 00:30:05;;;;;;;6.82;6.13;;;6.10;78.90;;;;;;5114574;27;20306;-64
2022/03/07 00:32:32;;;;;;;9.25;7.10;;;6.10;78.80;;;;;;5117108;27;20227;-64
2022/03/07 00:34:58;;;;;;;6.90;6.32;;;6.00;78.80;;;;;;5116662;27;20699;-64
2022/03/07 00:37:25;;;;;;;9.85;7.63;;;6.00;78.90;;;;;;5117013;27;20223;-64
2022/03/07 00:39:53;;;;;;;8.02;6.13;;;6.00;79.80;;;;;;5116324;27;20234;-64
2022/03/07 00:42:20;;;;;;;8.20;5.90;;;6.00;79.10;;;;;;5116939;27;20227;-64
2022/03/07 00:44:47;;;;;;;6.60;5.90;;;6.00;79.10;;;;;;5116680;27;20229;-63
2022/03/07 00:47:14;;;;;;;6.22;5.20;;;6.00;79.30;;;;;;5116737;27;20219;-64
2022/03/07 00:49:41;;;;;;;7.15;5.75;;;6.00;79.30;;;;;;5116837;27;20227;-64
2022/03/07 00:52:08;;;;;;;13.73;7.32;;;6.00;79.40;;;;;;5116312;27;20242;-64
2022/03/07 00:54:35;;;;;;;11.27;8.07;;;6.00;79.40;;;;;;5116642;27;20233;-63
2022/03/07 00:57:03;;;;;;;8.98;6.50;;;6.00;79.40;;;;;;5114122;27;20708;-62
2022/03/07 00:59:30;;;;;;;8.32;7.18;;;5.90;79.20;;;;;;5106388;27;20551;-63
2022/03/07 01:01:57;;;;;;;7.82;5.72;;;5.90;79.30;;;;;;5107576;27;20230;-63
2022/03/07 01:04:24;;;;;;;9.25;6.97;;;5.90;79.40;;;;;;5116169;27;20218;-63
2022/03/07 01:06:51;;;;;;;8.52;6.07;;;5.90;79.50;;;;;;5115733;27;20223;-62
2022/03/07 01:09:17;;;;;;;7.45;6.07;;;5.90;79.60;;;;;;5110605;28;20227;-62
2022/03/07 01:11:44;;;;;;;6.95;6.25;;;5.90;79.60;;;;;;5108233;28;20226;-63
2022/03/07 01:14:13;;;;;;;6.95;6.03;;;5.90;79.70;;;;;;5101857;28;20256;-63
2022/03/07 01:16:40;;;;;;;7.25;6.40;;;5.80;79.90;;;;;;5116048;27;20219;-63
2022/03/07 01:19:06;;;;;;;8.48;6.40;;;5.80;80.10;;;;;;5109052;28;20574;-62
2022/03/07 01:21:33;;;;;;;7.50;6.88;;;5.80;80.20;;;;;;5108888;28;20313;-63
2022/03/07 01:24:00;;;;;;;6.45;5.85;;;5.80;80.20;;;;;;5101960;28;20218;-63
2022/03/07 01:26:27;;;;;;;9.60;6.97;;;5.80;80.30;;;;;;5102438;28;20227;-64
2022/03/07 01:28:54;;;;;;;7.30;6.60;;;5.80;80.50;;;;;;5094606;28;20231;-64
2022/03/07 01:31:22;;;;;;;9.68;7.72;;;5.80;80.60;;;;;;5095396;28;20232;-64
2022/03/07 01:33:49;;;;;;;8.55;7.75;;;5.80;80.70;;;;;;5095399;28;20239;-64
2022/03/07 01:36:15;;;;;;;7.50;6.80;;;5.80;80.80;;;;;;5094717;28;20268;-64
2022/03/07 01:38:42;;;;;;;7.88;7.07;;;5.70;80.70;;;;;;5095556;28;20224;-64
2022/03/07 01:41:09;;;;;;;7.07;6.47;;;5.70;80.80;;;;;;5093931;28;20239;-64
2022/03/07 01:43:36;;;;;;;7.72;6.57;;;5.70;81.00;;;;;;5095232;28;20227;-64
2022/03/07 01:46:03;;;;;;;8.05;7.35;;;5.70;81.30;;;;;;5095141;28;20224;-64
2022/03/07 01:48:31;;;;;;;9.15;7.45;;;5.60;81.30;;;;;;5095148;28;20223;-64
2022/03/07 01:50:58;;;;;;;8.38;7.57;;;5.60;81.60;;;;;;5094610;28;20236;-64
2022/03/07 01:53:25;;;;;;;9.57;7.80;;;5.60;81.80;;;;;;5095270;28;20641;-64
2022/03/07 01:55:52;;;;;;;8.65;7.72;;;5.60;81.90;;;;;;5095005;28;20234;-64
2022/03/07 01:58:18;;;;;;;11.15;8.50;;;5.60;82.10;;;;;;5094853;28;20231;-63
2022/03/07 02:00:47;;;;;;;9.40;6.50;;;5.60;82.20;;;;;;5095091;28;20223;-64
2022/03/07 02:03:14;;;;;;;8.30;7.25;;;5.60;82.10;;;;;;5094240;28;20255;-64
2022/03/07 02:05:46;;;;;;;8.68;7.22;;;5.60;82.10;;;;;;5094921;28;20564;-64
2022/03/07 02:08:14;;;;;;;7.20;6.50;;;5.60;82.20;;;;;;5094613;28;20269;-64
2022/03/07 02:10:43;;;;;;;7.53;6.80;;;5.60;82.40;;;;;;5094619;28;20220;-64
2022/03/07 02:13:15;;;;;;;8.57;6.43;;;5.60;82.50;;;;;;5094364;28;20223;-65
2022/03/07 02:15:43;;;;;;;6.95;6.28;;;5.60;82.60;;;;;;5094912;28;20738;-64
2022/03/07 02:18:11;;;;;;;5.75;5.25;;;5.60;82.40;;;;;;5094295;28;20606;-63
2022/03/07 02:20:39;;;;;;;5.70;5.20;;;5.60;82.60;;;;;;5094605;28;20273;-63
2022/03/07 02:23:07;;;;;;;5.63;5.22;;;5.50;82.40;;;;;;5094281;28;20317;-64
2022/03/07 02:25:34;;;;;;;6.43;5.90;;;5.60;82.60;;;;;;5094541;28;20220;-64
2022/03/07 02:28:01;;;;;;;9.23;5.70;;;5.50;82.50;;;;;;5094087;28;20234;-64
2022/03/07 02:30:28;;;;;;;5.93;5.32;;;5.50;82.70;;;;;;5094516;28;20232;-63
2022/03/07 02:32:54;;;;;;;8.20;5.20;;;5.50;82.70;;;;;;5094422;28;20681;-64
2022/03/07 02:35:21;;;;;;;8.30;7.38;;;5.50;82.80;;;;;;5094127;28;20208;-63
2022/03/07 02:37:48;;;;;;;5.85;5.35;;;5.50;82.70;;;;;;5094193;28;20230;-63
2022/03/07 02:40:19;;;;;;;6.50;5.65;;;5.50;82.80;;;;;;5093655;28;20570;-64
2022/03/07 02:42:46;;;;;;;6.47;5.60;;;5.50;82.80;;;;;;5094170;28;20681;-64
2022/03/07 02:45:13;;;;;;;5.35;4.93;;;5.40;82.80;;;;;;5093779;28;20215;-64
2022/03/07 02:47:40;;;;;;;6.65;5.97;;;5.40;82.90;;;;;;5094203;28;20564;-63
2022/03/07 02:50:07;;;;;;;7.45;6.75;;;5.40;83.00;;;;;;5093757;28;20551;-64
2022/03/07 02:52:34;;;;;;;10.60;6.45;;;5.40;83.00;;;;;;5093775;28;20223;-64
2022/03/07 02:55:02;;;;;;;6.75;6.10;;;5.40;83.10;;;;;;5093628;28;20554;-63
2022/03/07 02:57:30;;;;;;;7.93;5.45;;;5.40;83.20;;;;;;5093923;28;20219;-63
2022/03/07 02:59:56;;;;;;;6.25;5.70;;;5.30;83.00;;;;;;5093954;28;20542;-63
2022/03/07 03:02:24;;;;;;;5.88;5.38;;;5.30;83.20;;;;;;5093398;28;20673;-64
2022/03/07 03:04:50;;;;;;;6.60;5.90;;;5.30;83.20;;;;;;5093786;28;20239;-64
2022/03/07 03:07:17;;;;;;;5.30;4.80;;;5.30;83.30;;;;;;5093172;28;20577;-64
2022/03/07 03:09:45;;;;;;;6.30;5.32;;;5.30;83.40;;;;;;5093617;28;20216;-63
2022/03/07 03:12:12;;;;;;;6.82;6.13;;;5.30;83.50;;;;;;5093309;28;20224;-64
2022/03/07 03:14:41;;;;;;;6.60;6.00;;;5.30;83.60;;;;;;5093617;28;20226;-63
2022/03/07 03:17:07;;;;;;;7.55;6.85;;;5.20;83.60;;;;;;5093111;28;20230;-63
2022/03/07 03:19:34;;;;;;;6.07;5.47;;;5.20;84.00;;;;;;5093633;28;20211;-63
2022/03/07 03:22:01;;;;;;;6.85;6.20;;;5.20;84.10;;;;;;5092973;28;20223;-64
2022/03/07 03:24:28;;;;;;;6.80;6.20;;;5.10;84.40;;;;;;5093246;28;20220;-64
2022/03/07 03:26:55;;;;;;;5.95;5.35;;;5.10;84.50;;;;;;5093478;28;20230;-64
2022/03/07 03:29:22;;;;;;;8.38;5.40;;;5.10;84.70;;;;;;5092975;28;20215;-64
2022/03/07 03:31:51;;;;;;;6.20;5.57;;;5.10;85.00;;;;;;5093182;28;20303;-64
2022/03/07 03:34:18;;;;;;;7.60;6.15;;;5.10;85.20;;;;;;5092967;28;20227;-64
2022/03/07 03:36:45;;;;;;;7.32;6.55;;;5.00;85.10;;;;;;5093048;28;20345;-64
2022/03/07 03:39:12;;;;;;;7.32;6.63;;;5.00;85.20;;;;;;5092730;28;20230;-65
2022/03/07 03:41:39;;;;;;;8.35;6.85;;;4.90;85.40;;;;;;5093202;28;20230;-64
2022/03/07 03:44:06;;;;;;;9.20;5.85;;;4.90;85.50;;;;;;5092697;28;20224;-65
2022/03/07 03:46:33;;;;;;;6.97;6.32;;;4.90;85.80;;;;;;5093081;28;20215;-64
2022/03/07 03:49:01;;;;;;;8.32;6.95;;;4.90;86.20;;;;;;5093080;28;20237;-64
2022/03/07 03:51:28;;;;;;;7.38;6.78;;;4.80;86.20;;;;;;5092635;28;21417;-63
2022/03/07 03:53:55;;;;;;;8.27;7.60;;;4.80;86.40;;;;;;5093070;28;20211;-63
2022/03/07 03:56:22;;;;;;;7.97;6.53;;;4.80;86.50;;;;;;5092419;28;20220;-64
2022/03/07 03:58:48;;;;;;;7.18;6.47;;;4.80;86.70;;;;;;5092897;28;20246;-64
2022/03/07 04:01:15;;;;;;;7.30;6.70;;;4.80;86.90;;;;;;5092568;28;20321;-63
2022/03/07 04:03:42;;;;;;;7.05;6.32;;;4.80;87.20;;;;;;5092539;28;20223;-63
2022/03/07 04:06:10;;;;;;;8.32;7.40;;;4.80;87.50;;;;;;5092202;28;20215;-63
2022/03/07 04:08:37;;;;;;;7.97;6.47;;;4.80;87.60;;;;;;5092811;28;20297;-63
2022/03/07 04:11:04;;;;;;;6.55;6.00;;;4.80;87.80;;;;;;5092712;28;20219;-64
2022/03/07 04:13:31;;;;;;;7.35;6.65;;;4.80;87.90;;;;;;5092602;28;20987;-64
2022/03/07 04:15:58;;;;;;;7.65;6.95;;;4.80;88.00;;;;;;5092872;28;20223;-64
2022/03/07 04:18:24;;;;;;;7.60;6.80;;;4.70;88.10;;;;;;5092352;28;20235;-64
2022/03/07 04:20:51;;;;;;;8.40;7.60;;;4.70;88.50;;;;;;5092763;28;20220;-63
2022/03/07 04:23:21;;;;;;;9.20;6.82;;;4.70;89.00;;;;;;5092296;28;20696;-64
2022/03/07 04:25:50;;;;;;;7.90;7.10;;;4.70;89.30;;;;;;5092725;28;20219;-63
2022/03/07 04:28:18;;;;;;;7.13;6.15;;;4.70;89.70;;;;;;5092197;28;20234;-63
2022/03/07 04:30:45;;;;;;;12.23;7.63;;;4.70;90.00;;;;;;5092738;28;20227;-63
2022/03/07 04:33:12;;;;;;;12.20;7.28;;;4.70;90.20;;;;;;5092048;28;20219;-63
2022/03/07 04:35:39;;;;;;;8.57;7.75;;;4.70;90.40;;;;;;5092725;28;20334;-63
2022/03/07 04:38:06;;;;;;;8.02;7.22;;;4.70;90.60;;;;;;5092557;28;20223;-64
2022/03/07 04:40:34;;;;;;;8.07;7.28;;;4.70;90.70;;;;;;5092078;28;20240;-64
2022/03/07 04:43:02;;;;;;;9.65;8.20;;;4.70;90.80;;;;;;5092586;28;20219;-64
2022/03/07 04:45:29;;;;;;;7.68;6.97;;;4.70;90.90;;;;;;5092214;28;20239;-63
2022/03/07 04:47:56;;;;;;;11.70;7.63;;;4.60;90.80;;;;;;5092558;28;20220;-64
2022/03/07 04:50:29;;;;;;;10.05;9.05;;;4.60;90.80;;;;;;5092012;28;20228;-65
2022/03/07 04:52:56;;;;;;;7.93;7.07;;;4.60;90.80;;;;;;5092304;28;20220;-65
2022/03/07 04:55:22;;;;;;;9.25;8.00;;;4.60;90.80;;;;;;5091851;28;20224;-63
2022/03/07 04:57:51;;;;;;;9.13;8.32;;;4.60;90.80;;;;;;5092603;28;20318;-63
2022/03/07 05:00:18;;;;;;;8.95;8.15;;;4.50;90.70;;;;;;5091877;28;20231;-63
2022/03/07 05:02:45;;;;;;;8.73;7.75;;;4.60;90.80;;;;;;5092321;28;20287;-63
2022/03/07 05:05:11;;;;;;;7.72;6.97;;;4.60;90.80;;;;;;5091794;28;20228;-63
2022/03/07 05:07:38;;;;;;;9.75;7.03;;;4.50;90.70;;;;;;5092041;28;20235;-64
2022/03/07 05:10:06;;;;;;;7.60;6.85;;;4.60;90.80;;;;;;5092160;28;20216;-64
2022/03/07 05:12:33;;;;;;;8.02;7.25;;;4.50;90.80;;;;;;5091807;28;20235;-63
2022/03/07 05:15:02;;;;;;;9.77;8.77;;;4.60;90.80;;;;;;5092173;28;20223;-64
2022/03/07 05:17:28;;;;;;;9.75;7.25;;;4.50;90.70;;;;;;5094047;28;20227;-63
2022/03/07 05:19:55;;;;;;;8.73;7.82;;;4.50;90.70;;;;;;5096069;28;20223;-63
2022/03/07 05:22:23;;;;;;;9.10;8.23;;;4.50;90.70;;;;;;5095146;28;20220;-63
2022/03/07 05:24:50;;;;;;;8.20;7.50;;;4.50;90.70;;;;;;5095823;28;20219;-63
2022/03/07 05:27:17;;;;;;;7.05;6.45;;;4.50;90.70;;;;;;5095176;28;20228;-64
2022/03/07 05:29:44;;;;;;;8.43;7.63;;;4.50;90.70;;;;;;5095708;28;20235;-64
2022/03/07 05:32:12;;;;;;;8.50;7.70;;;4.50;90.90;;;;;;5095534;28;20216;-63
2022/03/07 05:34:39;;;;;;;8.07;7.05;;;4.50;90.90;;;;;;5095236;28;20220;-63
2022/03/07 05:37:06;;;;;;;8.50;7.78;;;4.50;90.90;;;;;;5095452;28;20577;-63
2022/03/07 05:39:33;;;;;;;9.27;7.70;;;4.50;91.10;;;;;;5095095;28;20239;-63
2022/03/07 05:41:59;;;;;;;9.25;8.25;;;4.50;91.10;;;;;;5095474;28;20223;-63
2022/03/07 05:44:26;;;;;;;9.50;7.95;;;4.50;91.30;;;;;;5094992;28;20250;-63
2022/03/07 05:46:53;;;;;;;13.52;9.35;;;4.50;91.30;;;;;;5095535;28;20759;-63
2022/03/07 05:49:21;;;;;;;10.50;9.35;;;4.50;91.40;;;;;;5094966;28;20239;-64
2022/03/07 05:51:48;;;;;;;9.88;8.85;;;4.50;91.60;;;;;;5094896;28;20227;-63
2022/03/07 05:54:15;;;;;;;9.00;8.07;;;4.40;91.50;;;;;;5095293;28;20574;-63
2022/03/07 05:56:41;;;;;;;10.85;9.75;;;4.40;91.60;;;;;;5094890;28;20222;-64
2022/03/07 05:59:08;;;;;;;13.43;12.07;;;4.40;91.70;;;;;;5094989;28;20235;-63
2022/03/07 06:01:35;;;;;;;15.10;11.85;;;4.40;91.80;;;;;;5094653;28;20243;-63
2022/03/07 06:04:03;;;;;;;10.95;9.95;;;4.40;91.80;;;;;;5094961;28;20306;-63
2022/03/07 06:06:31;;;;;;;11.75;10.35;;;4.40;91.90;;;;;;5094483;28;20230;-63
2022/03/07 06:08:58;;;;;;;9.25;8.38;;;4.40;91.90;;;;;;5094850;28;20230;-64
2022/03/07 06:11:25;;;;;;;8.90;8.05;;;4.40;91.80;;;;;;5094211;28;20234;-63
2022/03/07 06:13:51;;;;;;;10.18;8.38;;;4.40;92.00;;;;;;5094734;28;20227;-62
2022/03/07 06:16:18;;;;;;;9.70;8.80;;;4.40;91.90;;;;;;5094461;28;20254;-63
2022/03/07 06:18:45;;;;;;;8.98;8.20;;;4.40;91.90;;;;;;5094606;28;20223;-63
2022/03/07 06:21:12;;;;;;;11.27;8.18;;;4.50;92.00;;;;;;5094608;28;20219;-64
2022/03/07 06:23:42;;;;;;;9.15;8.27;;;4.40;92.00;;;;;;5094149;28;20231;-64
2022/03/07 06:26:09;;;;;;;9.77;8.43;;;4.40;92.10;;;;;;5094590;28;20721;-64
2022/03/07 06:28:36;;;;;;;10.13;9.10;;;4.40;92.10;;;;;;5093653;28;20234;-64
2022/03/07 06:31:04;;;;;;;10.45;9.18;;;4.40;92.10;;;;;;5094526;28;20223;-64
2022/03/07 06:33:31;;;;;;;9.10;8.20;;;4.40;92.10;;;;;;5094083;28;20224;-64
2022/03/07 06:35:57;;;;;;;10.23;9.27;;;4.40;92.30;;;;;;5094405;28;20224;-64
2022/03/07 06:38:24;;;;;;;9.68;8.82;;;4.40;92.40;;;;;;5093817;28;20550;-64
2022/03/07 06:40:53;;;;;;;11.40;9.10;;;4.40;92.50;;;;;;5094175;28;20220;-63
2022/03/07 06:43:19;;;;;;;11.45;10.27;;;4.40;92.60;;;;;;5094278;28;20574;-64
2022/03/07 06:45:46;;;;;;;10.23;8.93;;;4.40;92.60;;;;;;5093861;28;20215;-63
2022/03/07 06:48:13;;;;;;;14.30;10.13;;;4.50;92.80;;;;;;5094133;28;20231;-64
2022/03/07 06:50:40;;;;;;;9.30;8.45;;;4.50;92.90;;;;;;5093764;28;20231;-64
2022/03/07 06:53:07;;;;;;;12.15;10.13;;;4.40;92.90;;;;;;5093857;28;20223;-64
2022/03/07 06:55:34;;;;;;;12.88;11.57;;;4.50;93.10;;;;;;5093501;28;20220;-64
2022/03/07 06:58:03;;;;;;;13.27;11.60;;;4.50;93.20;;;;;;5094048;28;20222;-64
2022/03/07 07:00:30;;;;;;;13.00;11.68;;;4.50;93.30;;;;;;5093385;28;20230;-64
2022/03/07 07:02:57;;;;;;;13.60;10.30;;;4.50;93.50;;;;;;5093760;28;20302;-64
2022/03/07 07:05:24;;;;;;;13.82;11.50;;;4.50;93.70;;;;;;5093501;28;20220;-64
2022/03/07 07:07:51;;;;;;;15.60;13.40;;;4.50;93.80;;;;;;5093725;28;20220;-63
2022/03/07 07:10:19;;;;;;;18.55;13.77;;;4.50;93.90;;;;;;5093537;28;20228;-63
2022/03/07 07:12:46;;;;;;;17.35;15.45;;;4.50;94.00;;;;;;5093329;28;20243;-64
2022/03/07 07:15:14;;;;;;;16.70;13.95;;;4.60;94.10;;;;;;5093510;28;20780;-64
2022/03/07 07:17:41;;;;;;;14.63;13.13;;;4.60;94.20;;;;;;5093187;28;20252;-63
2022/03/07 07:20:10;;;;;;;20.63;15.68;;;4.70;94.30;;;;;;5093506;28;20234;-63
2022/03/07 07:22:37;;;;;;;14.90;13.38;;;4.70;94.50;;;;;;5092789;28;20638;-63
2022/03/07 07:25:06;;;;;;;16.38;12.48;;;4.70;94.60;;;;;;5093540;28;20216;-64
2022/03/07 07:27:32;;;;;;;15.77;11.10;;;4.70;94.70;;;;;;5092948;28;20223;-64
2022/03/07 07:29:59;;;;;;;12.90;11.40;;;4.80;94.90;;;;;;5093253;28;20669;-64
2022/03/07 07:32:29;;;;;;;16.70;12.57;;;4.80;95.00;;;;;;5092953;28;20226;-63
2022/03/07 07:34:56;;;;;;;16.90;11.65;;;4.80;95.20;;;;;;5093743;28;20533;-63
2022/03/07 07:37:23;;;;;;;18.25;12.88;;;4.90;95.20;;;;;;5093305;28;20228;-64
2022/03/07 07:39:53;;;;;;;13.07;11.65;;;4.90;95.30;;;;;;5092106;28;20215;-63
2022/03/07 07:42:20;;;;;;;14.50;11.57;;;5.00;95.50;;;;;;5093321;28;20215;-63
2022/03/07 07:44:47;;;;;;;13.85;11.85;;;5.00;95.60;;;;;;5092469;28;20212;-63
2022/03/07 07:47:14;;;;;;;13.25;11.85;;;5.00;95.70;;;;;;5093184;28;20528;-63
2022/03/07 07:49:42;;;;;;;15.38;12.02;;;5.10;95.80;;;;;;5092690;28;20219;-64
2022/03/07 07:52:09;;;;;;;16.33;13.15;;;5.10;95.90;;;;;;5092835;28;20239;-64
2022/03/07 07:54:36;;;;;;;14.00;12.32;;;5.20;96.00;;;;;;5092665;28;20243;-64
2022/03/07 07:57:05;;;;;;;17.75;11.48;;;5.10;96.00;;;;;;5093031;28;20227;-64
2022/03/07 07:59:32;;;;;;;13.05;11.70;;;5.20;96.20;;;;;;5092279;28;20255;-64
2022/03/07 08:01:59;;;;;;;14.60;11.32;;;5.20;96.20;;;;;;5093020;28;20227;-64
2022/03/07 08:04:26;;;;;;;12.30;10.18;;;5.20;96.40;;;;;;5092595;28;20228;-64
2022/03/07 08:06:54;;;;;;;15.52;12.02;;;5.30;96.40;;;;;;5092585;28;20220;-64
2022/03/07 08:09:21;;;;;;;12.38;10.88;;;5.30;96.50;;;;;;5092825;28;20223;-64
2022/03/07 08:11:48;;;;;;;15.63;11.73;;;5.40;96.60;;;;;;5092233;28;20234;-64
2022/03/07 08:14:15;;;;;;;13.88;11.60;;;5.50;96.80;;;;;;5092623;28;20238;-63
2022/03/07 08:16:43;;;;;;;15.05;11.82;;;5.50;96.80;;;;;;5092601;28;20215;-63
2022/03/07 08:19:09;;;;;;;13.40;11.90;;;5.60;96.80;;;;;;5092600;28;20280;-63
2022/03/07 08:21:36;;;;;;;14.98;12.13;;;5.60;96.70;;;;;;5092149;28;20235;-64
2022/03/07 08:24:05;;;;;;;11.57;10.38;;;5.70;96.60;;;;;;5092602;28;20223;-63
2022/03/07 08:26:33;;;;;;;13.50;11.95;;;5.80;96.60;;;;;;5092288;28;20294;-63
2022/03/07 08:29:00;;;;;;;15.35;10.85;;;5.80;96.40;;;;;;5092695;28;20235;-63
2022/03/07 08:31:27;;;;;;;11.98;10.50;;;5.90;96.40;;;;;;5092318;28;20238;-64
2022/03/07 08:33:54;;;;;;;15.13;12.77;;;5.90;96.20;;;;;;5092087;28;20223;-64
2022/03/07 08:36:25;;;;;;;20.52;16.52;;;6.00;96.00;;;;;;5092753;28;20215;-63
2022/03/07 08:38:51;;;;;;;16.33;14.50;;;6.00;96.00;;;;;;5092009;28;20307;-63
2022/03/07 08:41:20;;;;;;;16.23;11.93;;;6.10;95.90;;;;;;5092273;28;20223;-63
2022/03/07 08:43:49;;;;;;;16.00;12.27;;;6.10;95.60;;;;;;5091984;28;20258;-63
2022/03/07 08:46:16;;;;;;;15.50;10.85;;;6.20;95.50;;;;;;5092460;28;20224;-64
2022/03/07 08:48:43;;;;;;;13.82;10.73;;;6.30;95.50;;;;;;5092128;28;20429;-64
2022/03/07 08:51:10;;;;;;;11.55;10.35;;;6.30;95.10;;;;;;5094507;28;20223;-63
2022/03/07 08:53:37;;;;;;;11.07;9.93;;;6.40;95.00;;;;;;5095877;28;20243;-63
2022/03/07 08:56:05;;;;;;;11.25;10.20;;;6.40;94.90;;;;;;5096168;28;20216;-64
2022/03/07 08:58:33;;;;;;;13.10;10.45;;;6.50;94.80;;;;;;5096125;28;20224;-64
2022/03/07 09:01:00;;;;;;;10.40;8.93;;;6.60;94.60;;;;;;5096143;28;20246;-63
2022/03/07 09:03:26;;;;;;;9.88;8.88;;;6.70;94.30;;;;;;5096034;28;20223;-63
2022/03/07 09:05:53;;;;;;;10.20;8.52;;;6.70;94.00;;;;;;5095833;28;20227;-63
2022/03/07 09:08:20;;;;;;;10.35;8.52;;;6.80;94.00;;;;;;5095937;28;20238;-63
2022/03/07 09:10:47;;;;;;;9.63;8.35;;;6.90;93.30;;;;;;5095489;28;20554;-63
2022/03/07 09:13:14;;;;;;;13.65;10.55;;;6.90;92.90;;;;;;5095961;28;20246;-64
2022/03/07 09:15:45;;;;;;;10.30;8.77;;;7.00;92.80;;;;;;5095629;28;20569;-63
2022/03/07 09:18:12;;;;;;;9.85;8.05;;;7.10;92.30;;;;;;5095919;28;20223;-64
2022/03/07 09:20:39;;;;;;;8.73;7.75;;;7.10;92.00;;;;;;5095498;28;20635;-64
2022/03/07 09:23:06;;;;;;;10.38;7.35;;;7.10;91.90;;;;;;5095864;28;20219;-64
2022/03/07 09:25:33;;;;;;;8.20;7.35;;;7.10;91.80;;;;;;5095780;28;20228;-63
2022/03/07 09:28:00;;;;;;;9.07;7.18;;;7.20;91.30;;;;;;5095147;28;20246;-64
2022/03/07 09:30:27;;;;;;;9.10;8.20;;;7.30;91.00;;;;;;5095644;28;20223;-65
2022/03/07 09:32:57;;;;;;;11.95;9.70;;;7.30;91.00;;;;;;5095099;28;20215;-63
2022/03/07 09:35:24;;;;;;;9.35;7.90;;;7.30;90.90;;;;;;5095736;28;20231;-63
2022/03/07 09:37:51;;;;;;;10.73;9.73;;;7.40;90.90;;;;;;5095091;28;20223;-63
2022/03/07 09:40:18;;;;;;;8.80;7.90;;;7.50;90.70;;;;;;5095241;28;20223;-64
2022/03/07 09:42:46;;;;;;;10.38;8.50;;;7.50;90.40;;;;;;5095147;28;20226;-63
2022/03/07 09:45:13;;;;;;;7.88;6.85;;;7.60;90.30;;;;;;5095307;28;20227;-63
2022/03/07 09:47:41;;;;;;;7.55;6.60;;;7.60;90.20;;;;;;5094890;28;20754;-64
2022/03/07 09:50:10;;;;;;;7.82;6.95;;;7.70;90.10;;;;;;5095405;28;20219;-63
2022/03/07 09:52:37;;;;;;;7.85;6.95;;;7.70;90.00;;;;;;5095051;28;20231;-64
2022/03/07 09:55:04;;;;;;;7.78;7.07;;;7.80;90.10;;;;;;5094804;28;21007;-63
2022/03/07 09:57:32;;;;;;;13.50;10.55;;;7.80;90.10;;;;;;5094906;28;20231;-64
2022/03/07 10:00:00;;;;;;;8.82;7.97;;;7.90;90.10;;;;;;5094397;28;20559;-63
2022/03/07 10:02:28;;;;;;;11.10;10.00;;;7.90;89.70;;;;;;5094207;28;20220;-64
2022/03/07 10:05:02;;;;;;;8.18;7.38;;;8.00;89.50;;;;;;5094477;28;20231;-63
2022/03/07 10:07:30;;;;;;;8.63;7.82;;;7.90;88.40;;;;;;5094893;28;20224;-63
2022/03/07 10:10:05;;;;;;;8.45;6.97;;;8.00;88.50;;;;;;5094345;28;20231;-64
2022/03/07 10:12:32;;;;;;;5.82;5.32;;;8.00;88.50;;;;;;5094720;28;20241;-64
2022/03/07 10:14:59;;;;;;;7.38;6.65;;;8.00;88.20;;;;;;5094398;28;20242;-64
2022/03/07 10:17:31;;;;;;;6.38;5.78;;;8.00;88.00;;;;;;5094778;28;20223;-64
2022/03/07 10:20:02;;;;;;;7.10;6.18;;;8.00;87.90;;;;;;5094382;28;20219;-63
2022/03/07 10:22:31;;;;;;;7.47;6.78;;;8.10;88.10;;;;;;5094667;28;20234;-64
2022/03/07 10:24:59;;;;;;;12.35;7.90;;;8.10;88.20;;;;;;5093788;28;20712;-64
2022/03/07 10:27:27;;;;;;;7.93;6.35;;;8.10;88.50;;;;;;5094872;28;20227;-65
2022/03/07 10:29:54;;;;;;;8.77;6.68;;;8.10;88.60;;;;;;5094078;28;20215;-64
2022/03/07 10:32:21;;;;;;;6.38;5.72;;;8.10;88.50;;;;;;5094423;28;20725;-65
2022/03/07 10:34:48;;;;;;;6.75;5.95;;;8.20;88.00;;;;;;5094025;28;20674;-64
2022/03/07 10:37:15;;;;;;;6.80;5.95;;;8.20;88.10;;;;;;5094266;28;20227;-64
2022/03/07 10:39:48;;;;;;;8.23;6.70;;;8.20;88.00;;;;;;5093930;28;20226;-66
2022/03/07 10:42:17;;;;;;;7.25;5.85;;;8.20;87.10;;;;;;5094354;28;20232;-64
2022/03/07 10:44:44;;;;;;;6.78;5.45;;;8.30;86.00;;;;;;5094165;28;20220;-65
2022/03/07 10:47:13;;;;;;;7.30;6.50;;;8.40;85.80;;;;;;5094110;28;20219;-64
2022/03/07 10:49:51;;;;;;;5.93;5.00;;;8.40;85.80;;;;;;5094202;28;20382;-64
2022/03/07 10:52:18;;;;;;;5.80;5.20;;;8.40;85.70;;;;;;5094368;28;20684;-64
2022/03/07 10:54:49;;;;;;;6.25;5.57;;;8.50;85.40;;;;;;5093511;28;20227;-63
2022/03/07 10:57:17;;;;;;;8.88;6.72;;;8.50;84.90;;;;;;5094210;28;20223;-64
2022/03/07 10:59:44;;;;;;;6.35;5.75;;;8.60;84.80;;;;;;5093432;28;20238;-64
2022/03/07 11:02:14;;;;;;;4.97;4.57;;;8.60;84.60;;;;;;5093763;28;20234;-64
2022/03/07 11:04:41;;;;;;;5.40;4.90;;;8.70;83.90;;;;;;5093252;28;20251;-65
2022/03/07 11:07:09;;;;;;;5.90;4.88;;;8.70;82.90;;;;;;5094071;28;20223;-65
2022/03/07 11:09:37;;;;;;;5.72;5.03;;;8.80;82.40;;;;;;5093446;28;20223;-64
2022/03/07 11:12:07;;;;;;;5.05;4.55;;;8.80;82.20;;;;;;5093598;28;20234;-64
2022/03/07 11:14:36;;;;;;;8.30;6.78;;;8.90;81.60;;;;;;5093509;28;20228;-64
2022/03/07 11:17:03;;;;;;;7.07;6.28;;;8.90;81.00;;;;;;5093899;28;20243;-63
2022/03/07 11:19:31;;;;;;;10.70;9.65;;;8.90;80.80;;;;;;5093169;28;20227;-64
2022/03/07 11:21:58;;;;;;;13.52;10.45;;;9.00;80.60;;;;;;5093487;28;20227;-64
2022/03/07 11:24:26;;;;;;;10.68;8.52;;;9.00;80.60;;;;;;5093620;28;20228;-64
2022/03/07 11:26:55;;;;;;;10.65;9.65;;;9.10;80.90;;;;;;5093096;28;20226;-64
2022/03/07 11:29:33;;;;;;;6.50;5.07;;;9.10;80.60;;;;;;5093679;28;20228;-64
2022/03/07 11:32:01;;;;;;;6.40;5.22;;;9.10;80.20;;;;;;5093203;28;20234;-64
2022/03/07 11:34:28;;;;;;;4.93;4.47;;;9.10;79.70;;;;;;5093325;28;20238;-64
2022/03/07 11:36:55;;;;;;;6.35;5.38;;;9.20;79.10;;;;;;5092853;28;20224;-64
2022/03/07 11:39:31;;;;;;;5.90;5.00;;;9.20;79.20;;;;;;5093297;28;20252;-64
2022/03/07 11:42:09;;;;;;;5.25;4.75;;;9.20;78.90;;;;;;5092828;28;20232;-64
2022/03/07 11:44:37;;;;;;;6.50;5.90;;;9.30;77.80;;;;;;5093083;28;20220;-63
2022/03/07 11:47:11;;;;;;;9.95;8.30;;;9.30;77.50;;;;;;5092783;28;20947;-64
2022/03/07 11:49:39;;;;;;;10.63;6.93;;;9.40;77.50;;;;;;5092989;28;20725;-64
2022/03/07 11:52:08;;;;;;;6.95;5.75;;;9.40;77.60;;;;;;5092623;28;20634;-64
2022/03/07 11:54:36;;;;;;;6.00;5.28;;;9.50;76.50;;;;;;5092964;28;20573;-65
2022/03/07 11:57:10;;;;;;;3.50;3.20;;;9.50;75.30;;;;;;5092644;28;20295;-64
2022/03/07 11:59:39;;;;;;;4.78;4.30;;;9.50;73.00;;;;;;5092997;28;20223;-65
2022/03/07 12:02:06;;;;;;;8.07;5.65;;;9.60;72.20;;;;;;5092366;28;20226;-64
2022/03/07 12:04:40;;;;;;;12.05;7.30;;;9.60;71.60;;;;;;5092730;28;20231;-64
2022/03/07 12:07:09;;;;;;;4.97;4.43;;;9.60;71.20;;;;;;5092736;28;20230;-64
2022/03/07 12:09:37;;;;;;;4.43;3.95;;;9.60;70.80;;;;;;5092743;28;20219;-63
2022/03/07 12:12:06;;;;;;;5.22;4.70;;;9.70;69.90;;;;;;5092490;28;20283;-63
2022/03/07 12:14:34;;;;;;;5.68;5.07;;;9.80;68.70;;;;;;5092688;28;20234;-63
2022/03/07 12:17:11;;;;;;;6.13;3.63;;;9.80;68.90;;;;;;5092313;28;20565;-64
2022/03/07 12:19:39;;;;;;;11.43;9.50;;;9.80;68.60;;;;;;5092738;28;20568;-63
2022/03/07 12:22:11;;;;;;;7.93;6.18;;;9.90;68.30;;;;;;5092163;28;20285;-64
2022/03/07 12:24:39;;;;;;;6.28;5.68;;;9.90;68.90;;;;;;5092608;28;20234;-63
2022/03/07 12:27:06;;;;;;;3.83;3.53;;;9.90;69.10;;;;;;5096121;28;20297;-64
2022/03/07 12:29:34;;;;;;;5.50;4.82;;;10.00;68.20;;;;;;5097021;28;20224;-64
2022/03/07 12:32:05;;;;;;;4.55;4.20;;;10.00;68.40;;;;;;5096353;28;20227;-64
2022/03/07 12:34:34;;;;;;;10.63;9.52;;;10.00;68.50;;;;;;5096656;28;20239;-64
2022/03/07 12:37:03;;;;;;;9.18;7.20;;;10.00;69.10;;;;;;5096147;28;20233;-64
2022/03/07 12:39:31;;;;;;;3.30;2.40;;;10.10;68.80;;;;;;5097014;28;20224;-63
2022/03/07 12:42:03;;;;;;;2.33;2.13;;;10.00;66.20;;;;;;5096075;28;20280;-63
2022/03/07 12:44:30;;;;;;;3.70;3.40;;;10.00;65.40;;;;;;5096726;28;20230;-64
2022/03/07 12:46:57;;;;;;;4.18;3.35;;;10.10;65.10;;;;;;5096076;28;20215;-63
2022/03/07 12:49:25;;;;;;;3.60;3.10;;;10.20;64.30;;;;;;5096329;28;20234;-64
2022/03/07 12:51:52;;;;;;;4.13;3.72;;;10.20;63.60;;;;;;5114380;27;20592;-64